sensor_id;sensor_type;location;lat;lon;timestamp;P1;durP1;ratioP1;P2;durP2;ratioP2
6029;SDS011;3043;42.682;23.376;2022-08-19T00:01:42;10.33;;;7.97;;
6029;SDS011;3043;42.682;23.376;2022-08-19T00:04:10;10.20;;;8.37;;
6029;SDS011;3043;42.682;23.376;2022-08-19T00:06:37;10.87;;;8.50;;
6029;SDS011;3043;42.682;23.376;2022-08-19T00:09:05;9.93;;;8.43;;
6029;SDS011;3043;42.682;23.376;2022-08-19T00:11:32;12.50;;;8.33;;
6029;SDS011;3043;42.682;23.376;2022-08-19T00:13:59;10.20;;;8.87;;
6029;SDS011;3043;42.682;23.376;2022-08-19T00:16:25;9.93;;;8.17;;
6029;SDS011;3043;42.682;23.376;2022-08-19T00:18:51;10.47;;;8.40;;
6029;SDS011;3043;42.682;23.376;2022-08-19T00:21:16;9.27;;;8.07;;
6029;SDS011;3043;42.682;23.376;2022-08-19T00:23:43;11.50;;;8.43;;
6029;SDS011;3043;42.682;23.376;2022-08-19T00:26:09;13.20;;;9.20;;
6029;SDS011;3043;42.682;23.376;2022-08-19T00:28:36;18.63;;;10.70;;
6029;SDS011;3043;42.682;23.376;2022-08-19T00:31:06;18.80;;;10.03;;
6029;SDS011;3043;42.682;23.376;2022-08-19T00:33:32;15.17;;;11.00;;
6029;SDS011;3043;42.682;23.376;2022-08-19T00:35:59;14.37;;;10.43;;
6029;SDS011;3043;42.682;23.376;2022-08-19T00:38:25;18.73;;;10.83;;
6029;SDS011;3043;42.682;23.376;2022-08-19T00:40:51;16.00;;;11.53;;
6029;SDS011;3043;42.682;23.376;2022-08-19T00:43:21;15.77;;;11.17;;
6029;SDS011;3043;42.682;23.376;2022-08-19T00:45:48;17.87;;;10.60;;
6029;SDS011;3043;42.682;23.376;2022-08-19T00:48:15;13.80;;;10.80;;
6029;SDS011;3043;42.682;23.376;2022-08-19T00:50:41;14.00;;;10.70;;
6029;SDS011;3043;42.682;23.376;2022-08-19T00:53:09;15.43;;;10.23;;
6029;SDS011;3043;42.682;23.376;2022-08-19T00:55:36;16.83;;;10.37;;
6029;SDS011;3043;42.682;23.376;2022-08-19T00:58:07;14.03;;;9.97;;
6029;SDS011;3043;42.682;23.376;2022-08-19T01:00:35;14.00;;;10.80;;
6029;SDS011;3043;42.682;23.376;2022-08-19T01:03:01;12.43;;;9.67;;
6029;SDS011;3043;42.682;23.376;2022-08-19T01:05:28;17.43;;;9.63;;
6029;SDS011;3043;42.682;23.376;2022-08-19T01:07:54;11.13;;;9.60;;
6029;SDS011;3043;42.682;23.376;2022-08-19T01:10:23;11.83;;;9.17;;
6029;SDS011;3043;42.682;23.376;2022-08-19T01:12:50;11.53;;;9.83;;
6029;SDS011;3043;42.682;23.376;2022-08-19T01:15:24;10.77;;;9.37;;
6029;SDS011;3043;42.682;23.376;2022-08-19T01:17:55;14.07;;;9.60;;
6029;SDS011;3043;42.682;23.376;2022-08-19T01:20:23;11.57;;;8.93;;
6029;SDS011;3043;42.682;23.376;2022-08-19T01:22:51;10.33;;;8.83;;
6029;SDS011;3043;42.682;23.376;2022-08-19T01:25:19;12.03;;;8.90;;
6029;SDS011;3043;42.682;23.376;2022-08-19T01:27:48;11.00;;;9.07;;
6029;SDS011;3043;42.682;23.376;2022-08-19T01:30:16;15.10;;;9.73;;
6029;SDS011;3043;42.682;23.376;2022-08-19T01:32:45;13.03;;;9.63;;
6029;SDS011;3043;42.682;23.376;2022-08-19T01:35:11;11.27;;;9.30;;
6029;SDS011;3043;42.682;23.376;2022-08-19T01:37:44;11.43;;;8.97;;
6029;SDS011;3043;42.682;23.376;2022-08-19T01:40:13;14.53;;;11.93;;
6029;SDS011;3043;42.682;23.376;2022-08-19T01:42:39;12.17;;;9.03;;
6029;SDS011;3043;42.682;23.376;2022-08-19T01:45:06;11.10;;;9.30;;
6029;SDS011;3043;42.682;23.376;2022-08-19T01:47:33;10.90;;;9.53;;
6029;SDS011;3043;42.682;23.376;2022-08-19T01:50:00;12.10;;;8.90;;
6029;SDS011;3043;42.682;23.376;2022-08-19T01:52:26;11.73;;;9.43;;
6029;SDS011;3043;42.682;23.376;2022-08-19T01:54:52;11.77;;;10.00;;
6029;SDS011;3043;42.682;23.376;2022-08-19T01:57:18;15.27;;;9.90;;
6029;SDS011;3043;42.682;23.376;2022-08-19T01:59:43;11.07;;;9.50;;
6029;SDS011;3043;42.682;23.376;2022-08-19T02:02:10;12.87;;;9.30;;
6029;SDS011;3043;42.682;23.376;2022-08-19T02:04:36;14.27;;;9.40;;
6029;SDS011;3043;42.682;23.376;2022-08-19T02:07:05;12.03;;;8.70;;
6029;SDS011;3043;42.682;23.376;2022-08-19T02:09:32;13.03;;;9.30;;
6029;SDS011;3043;42.682;23.376;2022-08-19T02:11:58;12.10;;;9.50;;
6029;SDS011;3043;42.682;23.376;2022-08-19T02:14:23;12.80;;;9.57;;
6029;SDS011;3043;42.682;23.376;2022-08-19T02:16:49;10.40;;;9.30;;
6029;SDS011;3043;42.682;23.376;2022-08-19T02:19:14;12.23;;;9.60;;
6029;SDS011;3043;42.682;23.376;2022-08-19T02:21:40;11.73;;;9.23;;
6029;SDS011;3043;42.682;23.376;2022-08-19T02:24:05;12.07;;;9.33;;
6029;SDS011;3043;42.682;23.376;2022-08-19T02:26:31;11.10;;;9.47;;
6029;SDS011;3043;42.682;23.376;2022-08-19T02:28:57;12.40;;;9.97;;
6029;SDS011;3043;42.682;23.376;2022-08-19T02:31:24;12.47;;;9.83;;
6029;SDS011;3043;42.682;23.376;2022-08-19T02:33:50;13.67;;;9.83;;
6029;SDS011;3043;42.682;23.376;2022-08-19T02:36:17;16.60;;;10.10;;
6029;SDS011;3043;42.682;23.376;2022-08-19T02:38:42;14.57;;;10.70;;
6029;SDS011;3043;42.682;23.376;2022-08-19T02:41:19;13.63;;;10.00;;
6029;SDS011;3043;42.682;23.376;2022-08-19T02:43:47;13.97;;;10.70;;
6029;SDS011;3043;42.682;23.376;2022-08-19T02:46:14;16.80;;;11.23;;
6029;SDS011;3043;42.682;23.376;2022-08-19T02:48:43;16.43;;;10.40;;
6029;SDS011;3043;42.682;23.376;2022-08-19T02:51:08;15.13;;;10.63;;
6029;SDS011;3043;42.682;23.376;2022-08-19T02:53:41;13.60;;;10.47;;
6029;SDS011;3043;42.682;23.376;2022-08-19T02:56:07;13.80;;;10.33;;
6029;SDS011;3043;42.682;23.376;2022-08-19T02:58:32;16.27;;;11.30;;
6029;SDS011;3043;42.682;23.376;2022-08-19T03:00:58;15.47;;;11.03;;
6029;SDS011;3043;42.682;23.376;2022-08-19T03:03:24;14.57;;;11.10;;
6029;SDS011;3043;42.682;23.376;2022-08-19T03:05:50;14.27;;;10.73;;
6029;SDS011;3043;42.682;23.376;2022-08-19T03:08:15;13.53;;;10.60;;
6029;SDS011;3043;42.682;23.376;2022-08-19T03:10:42;14.80;;;10.70;;
6029;SDS011;3043;42.682;23.376;2022-08-19T03:13:09;13.37;;;10.50;;
6029;SDS011;3043;42.682;23.376;2022-08-19T03:15:40;16.17;;;11.10;;
6029;SDS011;3043;42.682;23.376;2022-08-19T03:18:07;16.90;;;11.07;;
6029;SDS011;3043;42.682;23.376;2022-08-19T03:20:32;17.60;;;11.73;;
6029;SDS011;3043;42.682;23.376;2022-08-19T03:22:58;14.63;;;11.57;;
6029;SDS011;3043;42.682;23.376;2022-08-19T03:25:23;17.00;;;11.40;;
6029;SDS011;3043;42.682;23.376;2022-08-19T03:27:49;17.80;;;11.83;;
6029;SDS011;3043;42.682;23.376;2022-08-19T03:30:14;20.30;;;13.27;;
6029;SDS011;3043;42.682;23.376;2022-08-19T03:32:40;18.53;;;12.17;;
6029;SDS011;3043;42.682;23.376;2022-08-19T03:35:05;16.50;;;11.80;;
6029;SDS011;3043;42.682;23.376;2022-08-19T03:37:31;14.67;;;10.63;;
6029;SDS011;3043;42.682;23.376;2022-08-19T03:39:57;13.53;;;10.07;;
6029;SDS011;3043;42.682;23.376;2022-08-19T03:42:22;13.77;;;10.10;;
6029;SDS011;3043;42.682;23.376;2022-08-19T03:44:48;12.77;;;9.73;;
6029;SDS011;3043;42.682;23.376;2022-08-19T03:47:13;16.37;;;11.07;;
6029;SDS011;3043;42.682;23.376;2022-08-19T03:49:41;12.67;;;10.27;;
6029;SDS011;3043;42.682;23.376;2022-08-19T03:52:07;17.40;;;10.20;;
6029;SDS011;3043;42.682;23.376;2022-08-19T03:54:33;16.13;;;11.10;;
6029;SDS011;3043;42.682;23.376;2022-08-19T03:56:58;13.60;;;11.03;;
6029;SDS011;3043;42.682;23.376;2022-08-19T03:59:25;15.50;;;10.40;;
6029;SDS011;3043;42.682;23.376;2022-08-19T04:01:54;13.70;;;10.23;;
6029;SDS011;3043;42.682;23.376;2022-08-19T04:04:21;15.17;;;9.77;;
6029;SDS011;3043;42.682;23.376;2022-08-19T04:06:47;15.60;;;10.37;;
6029;SDS011;3043;42.682;23.376;2022-08-19T04:09:13;16.57;;;10.87;;
6029;SDS011;3043;42.682;23.376;2022-08-19T04:11:40;17.63;;;11.40;;
6029;SDS011;3043;42.682;23.376;2022-08-19T04:14:08;19.23;;;11.33;;
6029;SDS011;3043;42.682;23.376;2022-08-19T04:16:36;16.23;;;10.43;;
6029;SDS011;3043;42.682;23.376;2022-08-19T04:19:02;18.73;;;10.50;;
6029;SDS011;3043;42.682;23.376;2022-08-19T04:21:30;15.27;;;10.80;;
6029;SDS011;3043;42.682;23.376;2022-08-19T04:23:56;17.37;;;11.20;;
6029;SDS011;3043;42.682;23.376;2022-08-19T04:26:23;19.87;;;11.10;;
6029;SDS011;3043;42.682;23.376;2022-08-19T04:28:52;16.53;;;10.77;;
6029;SDS011;3043;42.682;23.376;2022-08-19T04:31:19;15.93;;;10.23;;
6029;SDS011;3043;42.682;23.376;2022-08-19T04:33:46;17.23;;;11.30;;
6029;SDS011;3043;42.682;23.376;2022-08-19T04:36:16;17.73;;;10.90;;
6029;SDS011;3043;42.682;23.376;2022-08-19T04:38:45;16.90;;;10.20;;
6029;SDS011;3043;42.682;23.376;2022-08-19T04:41:10;17.77;;;11.33;;
6029;SDS011;3043;42.682;23.376;2022-08-19T04:43:54;17.70;;;11.27;;
6029;SDS011;3043;42.682;23.376;2022-08-19T04:46:20;13.45;;;10.75;;
6029;SDS011;3043;42.682;23.376;2022-08-19T04:48:45;15.33;;;10.87;;
6029;SDS011;3043;42.682;23.376;2022-08-19T04:51:11;13.03;;;11.10;;
6029;SDS011;3043;42.682;23.376;2022-08-19T04:53:38;12.45;;;10.02;;
6029;SDS011;3043;42.682;23.376;2022-08-19T04:58:39;13.93;;;9.40;;
6029;SDS011;3043;42.682;23.376;2022-08-19T05:01:07;13.70;;;10.17;;
6029;SDS011;3043;42.682;23.376;2022-08-19T05:03:35;12.32;;;9.52;;
6029;SDS011;3043;42.682;23.376;2022-08-19T05:06:05;11.07;;;9.27;;
6029;SDS011;3043;42.682;23.376;2022-08-19T05:08:32;13.15;;;8.98;;
6029;SDS011;3043;42.682;23.376;2022-08-19T05:10:58;16.20;;;9.45;;
6029;SDS011;3043;42.682;23.376;2022-08-19T05:13:24;13.85;;;9.30;;
6029;SDS011;3043;42.682;23.376;2022-08-19T05:15:57;13.68;;;10.07;;
6029;SDS011;3043;42.682;23.376;2022-08-19T05:18:23;13.82;;;10.15;;
6029;SDS011;3043;42.682;23.376;2022-08-19T05:21:09;12.45;;;9.65;;
6029;SDS011;3043;42.682;23.376;2022-08-19T05:23:55;13.43;;;9.10;;
6029;SDS011;3043;42.682;23.376;2022-08-19T05:26:20;11.02;;;8.90;;
6029;SDS011;3043;42.682;23.376;2022-08-19T05:28:46;13.60;;;9.52;;
6029;SDS011;3043;42.682;23.376;2022-08-19T05:31:11;13.82;;;9.93;;
6029;SDS011;3043;42.682;23.376;2022-08-19T05:33:37;15.30;;;9.13;;
6029;SDS011;3043;42.682;23.376;2022-08-19T05:36:04;15.30;;;8.90;;
6029;SDS011;3043;42.682;23.376;2022-08-19T05:38:32;13.38;;;9.07;;
6029;SDS011;3043;42.682;23.376;2022-08-19T05:40:58;17.42;;;9.73;;
6029;SDS011;3043;42.682;23.376;2022-08-19T05:43:23;12.68;;;9.05;;
6029;SDS011;3043;42.682;23.376;2022-08-19T05:45:49;13.10;;;8.93;;
6029;SDS011;3043;42.682;23.376;2022-08-19T05:48:15;13.05;;;8.88;;
6029;SDS011;3043;42.682;23.376;2022-08-19T05:50:45;14.77;;;9.02;;
6029;SDS011;3043;42.682;23.376;2022-08-19T05:53:11;12.32;;;9.18;;
6029;SDS011;3043;42.682;23.376;2022-08-19T05:55:37;15.68;;;9.88;;
6029;SDS011;3043;42.682;23.376;2022-08-19T05:58:05;13.63;;;9.13;;
6029;SDS011;3043;42.682;23.376;2022-08-19T06:00:32;11.82;;;9.20;;
6029;SDS011;3043;42.682;23.376;2022-08-19T06:02:58;12.35;;;8.90;;
6029;SDS011;3043;42.682;23.376;2022-08-19T06:05:28;11.45;;;8.75;;
6029;SDS011;3043;42.682;23.376;2022-08-19T06:07:54;12.73;;;8.80;;
6029;SDS011;3043;42.682;23.376;2022-08-19T06:10:20;12.98;;;8.80;;
6029;SDS011;3043;42.682;23.376;2022-08-19T06:12:46;12.90;;;9.00;;
6029;SDS011;3043;42.682;23.376;2022-08-19T06:15:13;13.98;;;9.77;;
6029;SDS011;3043;42.682;23.376;2022-08-19T06:17:40;15.88;;;8.50;;
6029;SDS011;3043;42.682;23.376;2022-08-19T06:20:07;15.18;;;9.05;;
6029;SDS011;3043;42.682;23.376;2022-08-19T06:25:09;11.73;;;9.48;;
6029;SDS011;3043;42.682;23.376;2022-08-19T06:27:36;12.30;;;8.75;;
6029;SDS011;3043;42.682;23.376;2022-08-19T06:30:02;11.80;;;9.02;;
6029;SDS011;3043;42.682;23.376;2022-08-19T06:32:28;14.85;;;9.20;;
6029;SDS011;3043;42.682;23.376;2022-08-19T06:34:54;11.90;;;8.75;;
6029;SDS011;3043;42.682;23.376;2022-08-19T06:37:20;13.65;;;8.98;;
6029;SDS011;3043;42.682;23.376;2022-08-19T06:39:46;14.80;;;8.75;;
6029;SDS011;3043;42.682;23.376;2022-08-19T06:42:12;12.18;;;8.88;;
6029;SDS011;3043;42.682;23.376;2022-08-19T06:44:42;10.77;;;8.88;;
6029;SDS011;3043;42.682;23.376;2022-08-19T06:47:08;14.05;;;8.75;;
6029;SDS011;3043;42.682;23.376;2022-08-19T06:49:36;12.45;;;8.77;;
6029;SDS011;3043;42.682;23.376;2022-08-19T06:52:03;14.73;;;10.25;;
6029;SDS011;3043;42.682;23.376;2022-08-19T06:54:29;11.30;;;9.13;;
6029;SDS011;3043;42.682;23.376;2022-08-19T06:56:55;11.18;;;9.55;;
6029;SDS011;3043;42.682;23.376;2022-08-19T06:59:27;14.80;;;8.35;;
6029;SDS011;3043;42.682;23.376;2022-08-19T07:01:54;12.43;;;8.85;;
6029;SDS011;3043;42.682;23.376;2022-08-19T07:04:22;13.27;;;7.65;;
6029;SDS011;3043;42.682;23.376;2022-08-19T07:06:49;14.05;;;7.95;;
6029;SDS011;3043;42.682;23.376;2022-08-19T07:09:21;10.40;;;7.93;;
6029;SDS011;3043;42.682;23.376;2022-08-19T07:11:51;10.55;;;8.23;;
6029;SDS011;3043;42.682;23.376;2022-08-19T07:14:18;14.25;;;8.15;;
6029;SDS011;3043;42.682;23.376;2022-08-19T07:16:47;11.02;;;8.48;;
6029;SDS011;3043;42.682;23.376;2022-08-19T07:19:15;12.25;;;8.10;;
6029;SDS011;3043;42.682;23.376;2022-08-19T07:21:42;12.23;;;7.55;;
6029;SDS011;3043;42.682;23.376;2022-08-19T07:24:08;13.70;;;7.55;;
6029;SDS011;3043;42.682;23.376;2022-08-19T07:26:38;9.48;;;7.95;;
6029;SDS011;3043;42.682;23.376;2022-08-19T07:29:06;12.07;;;7.68;;
6029;SDS011;3043;42.682;23.376;2022-08-19T07:31:32;12.77;;;7.72;;
6029;SDS011;3043;42.682;23.376;2022-08-19T07:34:01;11.00;;;7.70;;
6029;SDS011;3043;42.682;23.376;2022-08-19T07:36:31;10.80;;;7.75;;
6029;SDS011;3043;42.682;23.376;2022-08-19T07:39:00;12.85;;;7.65;;
6029;SDS011;3043;42.682;23.376;2022-08-19T07:41:29;12.00;;;8.20;;
6029;SDS011;3043;42.682;23.376;2022-08-19T07:43:57;12.75;;;8.25;;
6029;SDS011;3043;42.682;23.376;2022-08-19T07:46:29;12.50;;;7.90;;
6029;SDS011;3043;42.682;23.376;2022-08-19T07:48:56;11.63;;;8.13;;
6029;SDS011;3043;42.682;23.376;2022-08-19T07:51:21;14.10;;;7.80;;
6029;SDS011;3043;42.682;23.376;2022-08-19T07:53:48;14.07;;;7.63;;
6029;SDS011;3043;42.682;23.376;2022-08-19T07:56:16;12.55;;;7.72;;
6029;SDS011;3043;42.682;23.376;2022-08-19T07:58:44;13.15;;;8.43;;
6029;SDS011;3043;42.682;23.376;2022-08-19T08:01:13;12.68;;;7.65;;
6029;SDS011;3043;42.682;23.376;2022-08-19T08:03:40;15.23;;;7.50;;
6029;SDS011;3043;42.682;23.376;2022-08-19T08:06:24;18.33;;;12.25;;
6029;SDS011;3043;42.682;23.376;2022-08-19T08:09:09;15.07;;;8.70;;
6029;SDS011;3043;42.682;23.376;2022-08-19T08:11:42;12.98;;;8.35;;
6029;SDS011;3043;42.682;23.376;2022-08-19T08:14:25;15.68;;;7.80;;
6029;SDS011;3043;42.682;23.376;2022-08-19T08:16:53;10.80;;;7.47;;
6029;SDS011;3043;42.682;23.376;2022-08-19T08:19:20;11.75;;;7.32;;
6029;SDS011;3043;42.682;23.376;2022-08-19T08:21:47;14.43;;;8.27;;
6029;SDS011;3043;42.682;23.376;2022-08-19T08:24:14;15.38;;;9.55;;
6029;SDS011;3043;42.682;23.376;2022-08-19T08:26:40;14.88;;;9.48;;
6029;SDS011;3043;42.682;23.376;2022-08-19T08:29:07;12.52;;;7.93;;
6029;SDS011;3043;42.682;23.376;2022-08-19T08:31:36;12.77;;;8.45;;
6029;SDS011;3043;42.682;23.376;2022-08-19T08:34:02;12.38;;;8.02;;
6029;SDS011;3043;42.682;23.376;2022-08-19T08:36:28;11.20;;;7.85;;
6029;SDS011;3043;42.682;23.376;2022-08-19T08:38:53;9.02;;;7.32;;
6029;SDS011;3043;42.682;23.376;2022-08-19T08:44:05;11.75;;;7.50;;
6029;SDS011;3043;42.682;23.376;2022-08-19T08:46:41;11.38;;;7.43;;
6029;SDS011;3043;42.682;23.376;2022-08-19T08:49:26;12.10;;;7.88;;
6029;SDS011;3043;42.682;23.376;2022-08-19T08:51:59;11.35;;;7.70;;
6029;SDS011;3043;42.682;23.376;2022-08-19T08:54:37;8.55;;;6.50;;
6029;SDS011;3043;42.682;23.376;2022-08-19T08:57:12;11.25;;;7.30;;
6029;SDS011;3043;42.682;23.376;2022-08-19T08:59:40;13.48;;;7.80;;
6029;SDS011;3043;42.682;23.376;2022-08-19T09:02:11;13.23;;;7.90;;
6029;SDS011;3043;42.682;23.376;2022-08-19T09:04:37;12.63;;;6.50;;
6029;SDS011;3043;42.682;23.376;2022-08-19T09:09:42;12.55;;;6.53;;
6029;SDS011;3043;42.682;23.376;2022-08-19T09:12:24;8.68;;;5.90;;
6029;SDS011;3043;42.682;23.376;2022-08-19T09:14:56;8.48;;;5.72;;
6029;SDS011;3043;42.682;23.376;2022-08-19T09:17:26;8.43;;;5.88;;
6029;SDS011;3043;42.682;23.376;2022-08-19T09:22:47;9.82;;;6.65;;
6029;SDS011;3043;42.682;23.376;2022-08-19T09:25:15;7.35;;;5.85;;
6029;SDS011;3043;42.682;23.376;2022-08-19T09:27:43;10.90;;;6.13;;
6029;SDS011;3043;42.682;23.376;2022-08-19T09:30:19;8.68;;;6.75;;
6029;SDS011;3043;42.682;23.376;2022-08-19T09:32:49;8.85;;;5.50;;
6029;SDS011;3043;42.682;23.376;2022-08-19T09:35:17;7.45;;;5.40;;
6029;SDS011;3043;42.682;23.376;2022-08-19T09:37:43;8.07;;;5.50;;
6029;SDS011;3043;42.682;23.376;2022-08-19T09:40:09;7.55;;;5.70;;
6029;SDS011;3043;42.682;23.376;2022-08-19T09:42:36;9.45;;;5.88;;
6029;SDS011;3043;42.682;23.376;2022-08-19T09:45:02;8.35;;;5.57;;
6029;SDS011;3043;42.682;23.376;2022-08-19T09:47:28;7.05;;;4.75;;
6029;SDS011;3043;42.682;23.376;2022-08-19T09:49:54;7.25;;;4.47;;
6029;SDS011;3043;42.682;23.376;2022-08-19T09:52:19;6.07;;;4.55;;
6029;SDS011;3043;42.682;23.376;2022-08-19T09:54:45;5.90;;;4.50;;
6029;SDS011;3043;42.682;23.376;2022-08-19T09:57:10;8.82;;;4.78;;
6029;SDS011;3043;42.682;23.376;2022-08-19T09:59:36;9.13;;;5.25;;
6029;SDS011;3043;42.682;23.376;2022-08-19T10:02:02;8.13;;;4.80;;
6029;SDS011;3043;42.682;23.376;2022-08-19T10:04:27;6.88;;;4.70;;
6029;SDS011;3043;42.682;23.376;2022-08-19T10:07:13;6.88;;;4.60;;
6029;SDS011;3043;42.682;23.376;2022-08-19T10:09:38;7.80;;;4.70;;
6029;SDS011;3043;42.682;23.376;2022-08-19T10:12:05;8.70;;;4.55;;
6029;SDS011;3043;42.682;23.376;2022-08-19T10:14:31;6.05;;;4.68;;
6029;SDS011;3043;42.682;23.376;2022-08-19T10:16:57;6.97;;;4.70;;
6029;SDS011;3043;42.682;23.376;2022-08-19T10:19:25;10.00;;;5.00;;
6029;SDS011;3043;42.682;23.376;2022-08-19T10:21:51;8.63;;;5.15;;
6029;SDS011;3043;42.682;23.376;2022-08-19T10:24:17;6.90;;;4.93;;
6029;SDS011;3043;42.682;23.376;2022-08-19T10:26:42;9.48;;;5.18;;
6029;SDS011;3043;42.682;23.376;2022-08-19T10:29:11;8.65;;;5.20;;
6029;SDS011;3043;42.682;23.376;2022-08-19T10:31:37;9.20;;;5.15;;
6029;SDS011;3043;42.682;23.376;2022-08-19T10:34:03;6.47;;;5.13;;
6029;SDS011;3043;42.682;23.376;2022-08-19T10:36:30;8.20;;;5.28;;
6029;SDS011;3043;42.682;23.376;2022-08-19T10:38:59;9.82;;;5.13;;
6029;SDS011;3043;42.682;23.376;2022-08-19T10:41:28;7.07;;;5.30;;
6029;SDS011;3043;42.682;23.376;2022-08-19T10:43:57;8.57;;;5.63;;
6029;SDS011;3043;42.682;23.376;2022-08-19T10:46:25;6.47;;;5.25;;
6029;SDS011;3043;42.682;23.376;2022-08-19T10:48:52;9.25;;;5.65;;
6029;SDS011;3043;42.682;23.376;2022-08-19T10:51:18;7.63;;;5.90;;
6029;SDS011;3043;42.682;23.376;2022-08-19T10:54:02;8.82;;;5.38;;
6029;SDS011;3043;42.682;23.376;2022-08-19T10:56:29;8.77;;;5.78;;
6029;SDS011;3043;42.682;23.376;2022-08-19T10:59:13;8.38;;;5.57;;
6029;SDS011;3043;42.682;23.376;2022-08-19T11:01:40;6.60;;;5.25;;
6029;SDS011;3043;42.682;23.376;2022-08-19T11:04:08;9.43;;;5.82;;
6029;SDS011;3043;42.682;23.376;2022-08-19T11:06:36;7.45;;;6.05;;
6029;SDS011;3043;42.682;23.376;2022-08-19T11:09:03;12.40;;;8.00;;
6029;SDS011;3043;42.682;23.376;2022-08-19T11:11:31;10.80;;;6.00;;
6029;SDS011;3043;42.682;23.376;2022-08-19T11:13:57;6.80;;;5.55;;
6029;SDS011;3043;42.682;23.376;2022-08-19T11:16:25;7.80;;;5.75;;
6029;SDS011;3043;42.682;23.376;2022-08-19T11:18:54;10.32;;;5.88;;
6029;SDS011;3043;42.682;23.376;2022-08-19T11:23:52;9.23;;;5.85;;
6029;SDS011;3043;42.682;23.376;2022-08-19T11:26:19;10.57;;;6.57;;
6029;SDS011;3043;42.682;23.376;2022-08-19T11:28:46;7.72;;;5.55;;
6029;SDS011;3043;42.682;23.376;2022-08-19T11:31:13;9.90;;;6.10;;
6029;SDS011;3043;42.682;23.376;2022-08-19T11:33:41;10.43;;;6.00;;
6029;SDS011;3043;42.682;23.376;2022-08-19T11:36:07;9.40;;;5.85;;
6029;SDS011;3043;42.682;23.376;2022-08-19T11:38:33;9.27;;;5.90;;
6029;SDS011;3043;42.682;23.376;2022-08-19T11:41:01;10.23;;;5.63;;
6029;SDS011;3043;42.682;23.376;2022-08-19T11:43:31;7.95;;;5.55;;
6029;SDS011;3043;42.682;23.376;2022-08-19T11:45:57;7.93;;;5.65;;
6029;SDS011;3043;42.682;23.376;2022-08-19T11:48:23;9.43;;;6.32;;
6029;SDS011;3043;42.682;23.376;2022-08-19T11:50:50;11.38;;;6.35;;
6029;SDS011;3043;42.682;23.376;2022-08-19T11:53:17;8.75;;;6.18;;
6029;SDS011;3043;42.682;23.376;2022-08-19T11:55:45;8.20;;;6.30;;
6029;SDS011;3043;42.682;23.376;2022-08-19T11:58:13;7.70;;;6.07;;
6029;SDS011;3043;42.682;23.376;2022-08-19T12:00:41;9.05;;;6.10;;
6029;SDS011;3043;42.682;23.376;2022-08-19T12:03:07;8.10;;;6.03;;
6029;SDS011;3043;42.682;23.376;2022-08-19T12:05:33;7.93;;;6.18;;
6029;SDS011;3043;42.682;23.376;2022-08-19T12:08:02;9.55;;;7.55;;
6029;SDS011;3043;42.682;23.376;2022-08-19T12:10:27;8.77;;;6.75;;
6029;SDS011;3043;42.682;23.376;2022-08-19T12:12:53;9.00;;;6.35;;
6029;SDS011;3043;42.682;23.376;2022-08-19T12:15:18;9.35;;;6.57;;
6029;SDS011;3043;42.682;23.376;2022-08-19T12:17:44;7.53;;;6.00;;
6029;SDS011;3043;42.682;23.376;2022-08-19T12:20:10;8.50;;;6.32;;
6029;SDS011;3043;42.682;23.376;2022-08-19T12:22:38;7.35;;;6.32;;
6029;SDS011;3043;42.682;23.376;2022-08-19T12:25:06;8.48;;;6.20;;
6029;SDS011;3043;42.682;23.376;2022-08-19T12:27:32;8.73;;;6.40;;
6029;SDS011;3043;42.682;23.376;2022-08-19T12:29:58;8.57;;;6.30;;
6029;SDS011;3043;42.682;23.376;2022-08-19T12:32:25;9.95;;;6.72;;
6029;SDS011;3043;42.682;23.376;2022-08-19T12:34:51;10.57;;;6.40;;
6029;SDS011;3043;42.682;23.376;2022-08-19T12:37:16;8.82;;;7.18;;
6029;SDS011;3043;42.682;23.376;2022-08-19T12:39:42;8.57;;;6.30;;
6029;SDS011;3043;42.682;23.376;2022-08-19T12:42:12;8.57;;;5.88;;
6029;SDS011;3043;42.682;23.376;2022-08-19T12:44:39;9.02;;;6.65;;
6029;SDS011;3043;42.682;23.376;2022-08-19T12:47:06;10.50;;;6.47;;
6029;SDS011;3043;42.682;23.376;2022-08-19T12:49:32;9.70;;;6.43;;
6029;SDS011;3043;42.682;23.376;2022-08-19T12:52:01;10.57;;;6.50;;
6029;SDS011;3043;42.682;23.376;2022-08-19T12:54:28;11.00;;;7.18;;
6029;SDS011;3043;42.682;23.376;2022-08-19T12:56:55;10.70;;;6.40;;
6029;SDS011;3043;42.682;23.376;2022-08-19T12:59:22;8.85;;;6.22;;
6029;SDS011;3043;42.682;23.376;2022-08-19T13:01:47;8.98;;;6.78;;
6029;SDS011;3043;42.682;23.376;2022-08-19T13:04:13;11.77;;;6.70;;
6029;SDS011;3043;42.682;23.376;2022-08-19T13:06:39;9.07;;;7.00;;
6029;SDS011;3043;42.682;23.376;2022-08-19T13:09:04;8.52;;;6.50;;
6029;SDS011;3043;42.682;23.376;2022-08-19T13:11:30;10.73;;;6.90;;
6029;SDS011;3043;42.682;23.376;2022-08-19T13:13:59;10.35;;;6.68;;
6029;SDS011;3043;42.682;23.376;2022-08-19T13:16:27;9.40;;;6.53;;
6029;SDS011;3043;42.682;23.376;2022-08-19T13:18:54;8.98;;;6.60;;
6029;SDS011;3043;42.682;23.376;2022-08-19T13:21:22;8.70;;;6.75;;
6029;SDS011;3043;42.682;23.376;2022-08-19T13:23:50;13.85;;;9.98;;
6029;SDS011;3043;42.682;23.376;2022-08-19T13:26:16;10.98;;;6.80;;
6029;SDS011;3043;42.682;23.376;2022-08-19T13:28:43;8.68;;;6.90;;
6029;SDS011;3043;42.682;23.376;2022-08-19T13:31:29;10.27;;;6.90;;
6029;SDS011;3043;42.682;23.376;2022-08-19T13:34:15;8.88;;;6.53;;
6029;SDS011;3043;42.682;23.376;2022-08-19T13:36:41;8.45;;;6.90;;
6029;SDS011;3043;42.682;23.376;2022-08-19T13:39:07;10.07;;;6.38;;
6029;SDS011;3043;42.682;23.376;2022-08-19T13:41:34;9.27;;;6.68;;
6029;SDS011;3043;42.682;23.376;2022-08-19T13:44:01;11.82;;;7.18;;
6029;SDS011;3043;42.682;23.376;2022-08-19T13:46:27;10.00;;;6.80;;
6029;SDS011;3043;42.682;23.376;2022-08-19T13:48:54;10.23;;;6.80;;
6029;SDS011;3043;42.682;23.376;2022-08-19T13:51:19;9.98;;;6.50;;
6029;SDS011;3043;42.682;23.376;2022-08-19T13:53:45;8.73;;;6.43;;
6029;SDS011;3043;42.682;23.376;2022-08-19T13:56:14;9.05;;;6.90;;
6029;SDS011;3043;42.682;23.376;2022-08-19T13:58:41;9.73;;;7.00;;
6029;SDS011;3043;42.682;23.376;2022-08-19T14:01:08;10.75;;;7.00;;
6029;SDS011;3043;42.682;23.376;2022-08-19T14:03:34;10.98;;;7.20;;
6029;SDS011;3043;42.682;23.376;2022-08-19T14:06:01;9.75;;;6.43;;
6029;SDS011;3043;42.682;23.376;2022-08-19T14:08:26;9.85;;;6.85;;
6029;SDS011;3043;42.682;23.376;2022-08-19T14:10:55;9.82;;;6.80;;
6029;SDS011;3043;42.682;23.376;2022-08-19T14:13:22;9.45;;;6.53;;
6029;SDS011;3043;42.682;23.376;2022-08-19T14:15:48;10.95;;;6.80;;
6029;SDS011;3043;42.682;23.376;2022-08-19T14:18:15;10.70;;;7.00;;
6029;SDS011;3043;42.682;23.376;2022-08-19T14:20:41;11.57;;;7.57;;
6029;SDS011;3043;42.682;23.376;2022-08-19T14:23:07;12.82;;;6.55;;
6029;SDS011;3043;42.682;23.376;2022-08-19T14:25:32;8.45;;;6.40;;
6029;SDS011;3043;42.682;23.376;2022-08-19T14:27:59;9.73;;;6.90;;
6029;SDS011;3043;42.682;23.376;2022-08-19T14:30:26;12.35;;;6.78;;
6029;SDS011;3043;42.682;23.376;2022-08-19T14:32:54;9.45;;;6.75;;
6029;SDS011;3043;42.682;23.376;2022-08-19T14:35:21;9.00;;;7.25;;
6029;SDS011;3043;42.682;23.376;2022-08-19T14:37:48;9.25;;;6.63;;
6029;SDS011;3043;42.682;23.376;2022-08-19T14:40:16;9.57;;;7.20;;
6029;SDS011;3043;42.682;23.376;2022-08-19T14:42:48;8.50;;;7.00;;
6029;SDS011;3043;42.682;23.376;2022-08-19T14:45:13;9.43;;;6.65;;
6029;SDS011;3043;42.682;23.376;2022-08-19T14:47:39;8.48;;;6.57;;
6029;SDS011;3043;42.682;23.376;2022-08-19T14:50:09;10.77;;;7.07;;
6029;SDS011;3043;42.682;23.376;2022-08-19T14:52:36;9.98;;;6.63;;
6029;SDS011;3043;42.682;23.376;2022-08-19T14:55:03;9.55;;;7.05;;
6029;SDS011;3043;42.682;23.376;2022-08-19T14:57:29;12.63;;;6.97;;
6029;SDS011;3043;42.682;23.376;2022-08-19T14:59:55;8.48;;;6.25;;
6029;SDS011;3043;42.682;23.376;2022-08-19T15:02:22;9.95;;;6.43;;
6029;SDS011;3043;42.682;23.376;2022-08-19T15:04:47;10.25;;;6.60;;
6029;SDS011;3043;42.682;23.376;2022-08-19T15:07:13;11.95;;;6.70;;